createdAt,value
2022-11-08T00:02:25.401Z,100262.13
2022-11-08T00:04:52.163Z,100259.44
2022-11-08T00:07:37.831Z,100269.19
2022-11-08T00:10:23.462Z,100262.13
2022-11-08T00:13:08.322Z,100262.16
2022-11-08T00:15:38.595Z,100266.59
2022-11-08T00:18:07.010Z,100261.25
2022-11-08T00:20:34.102Z,100265.69
2022-11-08T00:23:00.974Z,100265.69
2022-11-08T00:25:27.505Z,100271.88
2022-11-08T00:27:54.177Z,100278.94
2022-11-08T00:30:20.873Z,100275.44
2022-11-08T00:32:47.494Z,100273.66
2022-11-08T00:35:14.111Z,100273.63
2022-11-08T00:37:40.662Z,100266.59
2022-11-08T00:40:07.675Z,100264.78
2022-11-08T00:42:34.337Z,100261.28
2022-11-08T00:45:00.902Z,100266.56
2022-11-08T00:47:27.533Z,100259.53
2022-11-08T00:49:54.038Z,100263.03
2022-11-08T00:52:20.548Z,100271.03
2022-11-08T00:54:47.199Z,100274.59
2022-11-08T00:57:13.703Z,100266.63
2022-11-08T00:59:40.247Z,100276.34
2022-11-08T01:02:06.833Z,100281.63
2022-11-08T01:04:33.413Z,100279.88
2022-11-08T01:07:00.342Z,100276.34
2022-11-08T01:09:26.886Z,100276.31
2022-11-08T01:11:53.566Z,100273.69
2022-11-08T01:14:20.080Z,100277.19
2022-11-08T01:16:46.585Z,100267.47
2022-11-08T01:19:13.240Z,100265.69
2022-11-08T01:21:39.802Z,100256.84
2022-11-08T01:24:06.512Z,100256.81
2022-11-08T01:26:33.342Z,100271.84
2022-11-08T01:28:59.887Z,100277.13
2022-11-08T01:31:32.871Z,100273.59
2022-11-08T01:34:00.318Z,100268.31
2022-11-08T01:36:28.692Z,100264.75
2022-11-08T01:38:56.890Z,100271.81
2022-11-08T01:41:25.770Z,100264.72
2022-11-08T01:43:58.071Z,100259.44
2022-11-08T01:46:36.697Z,100256.78
2022-11-08T01:49:19.027Z,100260.28
2022-11-08T01:52:04.804Z,100262.09
2022-11-08T01:54:41.370Z,100257.66
2022-11-08T01:57:11.360Z,100255.00
2022-11-08T01:59:41.592Z,100261.16
2022-11-08T02:02:11.161Z,100259.41
2022-11-08T02:04:40.028Z,100262.91
2022-11-08T02:07:07.833Z,100259.38
2022-11-08T02:09:37.976Z,100261.09
2022-11-08T02:12:06.473Z,100258.44
2022-11-08T02:14:33.175Z,100263.75
2022-11-08T02:17:00.171Z,100250.50
2022-11-08T02:19:39.571Z,100254.91
2022-11-08T02:22:21.341Z,100250.50
2022-11-08T02:24:48.292Z,100261.97
2022-11-08T02:27:15.273Z,100254.00
2022-11-08T02:29:42.310Z,100255.78
2022-11-08T02:32:11.083Z,100254.91
2022-11-08T02:34:54.591Z,100256.66
2022-11-08T02:37:23.130Z,100248.72
2022-11-08T02:39:49.735Z,100253.09
2022-11-08T02:42:18.720Z,100247.84
2022-11-08T02:44:46.369Z,100248.75
2022-11-08T02:47:13.186Z,100247.84
2022-11-08T02:49:39.929Z,100244.31
2022-11-08T02:52:06.778Z,100246.06
2022-11-08T02:54:33.397Z,100245.16
2022-11-08T02:56:59.974Z,100246.94
2022-11-08T02:59:26.499Z,100246.91
2022-11-08T03:01:53.105Z,100244.25
2022-11-08T03:04:19.774Z,100250.41
2022-11-08T03:06:46.311Z,100238.97
2022-11-08T03:09:12.902Z,100243.38
2022-11-08T03:11:39.423Z,100243.38
2022-11-08T03:14:05.989Z,100238.03
2022-11-08T03:16:32.545Z,100238.94
2022-11-08T03:18:59.079Z,100238.03
2022-11-08T03:21:26.378Z,100233.59
2022-11-08T03:23:52.968Z,100231.84
2022-11-08T03:26:19.714Z,100236.25
2022-11-08T03:28:46.262Z,100233.59
2022-11-08T03:31:12.789Z,100234.44
2022-11-08T03:33:39.535Z,100233.56
2022-11-08T03:36:06.162Z,100225.63
2022-11-08T03:38:32.687Z,100227.38
2022-11-08T03:40:59.247Z,100223.84
2022-11-08T03:43:26.724Z,100222.06
2022-11-08T03:45:53.311Z,100222.06
2022-11-08T03:48:20.484Z,100223.81
2022-11-08T03:50:47.355Z,100224.72
2022-11-08T03:53:13.969Z,100228.22
2022-11-08T03:55:41.410Z,100221.13
2022-11-08T03:58:07.970Z,100228.16
2022-11-08T04:00:34.485Z,100229.91
2022-11-08T04:03:03.783Z,100227.25
2022-11-08T04:05:32.326Z,100230.75
2022-11-08T04:08:00.423Z,100228.09
2022-11-08T04:10:27.412Z,100227.19
2022-11-08T04:13:12.756Z,100239.53
2022-11-08T04:15:39.573Z,100239.47
2022-11-08T04:18:24.771Z,100236.78
2022-11-08T04:21:10.078Z,100238.50
2022-11-08T04:23:37.760Z,100235.84
2022-11-08T04:26:11.928Z,100233.16
2022-11-08T04:28:39.976Z,100230.50
2022-11-08T04:31:18.955Z,100231.34
2022-11-08T04:33:46.169Z,100225.13
2022-11-08T04:36:15.390Z,100225.97
2022-11-08T04:38:42.186Z,100221.53
2022-11-08T04:41:13.465Z,100219.72
2022-11-08T04:43:40.460Z,100218.84
2022-11-08T04:46:11.968Z,100221.47
2022-11-08T04:48:39.192Z,100224.97
2022-11-08T04:51:10.329Z,100224.09
2022-11-08T04:53:37.305Z,100226.72
2022-11-08T04:56:07.209Z,100211.72
2022-11-08T04:58:42.153Z,100212.59
2022-11-08T05:01:11.441Z,100217.84
2022-11-08T05:03:38.267Z,100211.69
2022-11-08T05:06:12.055Z,100209.88
2022-11-08T05:08:39.222Z,100208.97
2022-11-08T05:11:11.783Z,100214.22
2022-11-08T05:13:39.251Z,100203.59
2022-11-08T05:16:08.849Z,100213.25
2022-11-08T05:18:35.405Z,100208.84
2022-11-08T05:21:21.064Z,100208.78
2022-11-08T05:23:49.882Z,100204.38
2022-11-08T05:26:18.259Z,100207.84
2022-11-08T05:28:45.416Z,100206.06
2022-11-08T05:31:12.177Z,100209.53
2022-11-08T05:33:38.892Z,100207.75
2022-11-08T05:36:08.598Z,100199.81
2022-11-08T05:38:35.443Z,100194.50
2022-11-08T05:41:08.125Z,100200.66
2022-11-08T05:43:35.320Z,100199.72
2022-11-08T05:46:02.209Z,100212.03
2022-11-08T05:48:29.067Z,100205.81
2022-11-08T05:50:55.873Z,100201.38
2022-11-08T05:53:22.653Z,100211.91
2022-11-08T05:55:49.777Z,100205.72
2022-11-08T05:58:16.770Z,100201.28
2022-11-08T06:00:43.265Z,100206.53
2022-11-08T06:03:09.949Z,100205.63
2022-11-08T06:05:37.071Z,100202.09
2022-11-08T06:08:03.927Z,100207.34
2022-11-08T06:10:30.465Z,100206.44
2022-11-08T06:13:03.468Z,100202.88
2022-11-08T06:15:30.008Z,100204.63
2022-11-08T06:17:56.517Z,100195.88
2022-11-08T06:20:23.219Z,100206.44
2022-11-08T06:22:49.776Z,100205.63
2022-11-08T06:25:16.490Z,100209.28
2022-11-08T06:27:43.285Z,100197.94
2022-11-08T06:30:10.407Z,100205.97
2022-11-08T06:32:37.109Z,100204.31
2022-11-08T06:35:04.477Z,100197.34
2022-11-08T06:37:30.988Z,100199.19
2022-11-08T06:39:58.878Z,100199.22
2022-11-08T06:42:26.370Z,100196.66
2022-11-08T06:44:52.987Z,100186.09
2022-11-08T06:47:19.556Z,100187.00
2022-11-08T06:49:46.145Z,100189.63
2022-11-08T06:52:12.719Z,100188.75
2022-11-08T06:54:39.218Z,100196.66
2022-11-08T06:57:05.802Z,100194.81
2022-11-08T06:59:32.344Z,100204.50
2022-11-08T07:01:58.988Z,100207.13
2022-11-08T07:04:25.654Z,100197.47
2022-11-08T07:06:52.223Z,100206.28
2022-11-08T07:09:18.858Z,100201.94
2022-11-08T07:11:45.511Z,100201.06
2022-11-08T07:14:12.083Z,100203.72
2022-11-08T07:16:38.882Z,100207.25
2022-11-08T07:19:05.571Z,100198.47
2022-11-08T07:21:32.083Z,100191.44
2022-11-08T07:23:58.697Z,100191.47
2022-11-08T07:26:25.309Z,100187.94
2022-11-08T07:28:52.158Z,100187.09
2022-11-08T07:31:18.840Z,100184.50
2022-11-08T07:33:45.431Z,100184.53
2022-11-08T07:36:11.987Z,100187.22
2022-11-08T07:38:38.604Z,100190.78
2022-11-08T07:41:05.486Z,100189.94
2022-11-08T07:43:32.063Z,100186.44
2022-11-08T07:46:08.818Z,100191.75
2022-11-08T07:48:35.851Z,100191.78
2022-11-08T07:51:02.944Z,100183.91
2022-11-08T07:53:29.846Z,100184.81
2022-11-08T07:55:58.259Z,100182.22
2022-11-08T07:58:25.037Z,100187.56
2022-11-08T08:00:51.570Z,100180.53
2022-11-08T08:03:19.025Z,100177.88
2022-11-08T08:05:52.381Z,100184.09
2022-11-08T08:08:21.144Z,100175.28
2022-11-08T08:10:48.542Z,100177.06
2022-11-08T08:13:15.722Z,100171.81
2022-11-08T08:15:42.616Z,100180.66
2022-11-08T08:18:11.083Z,100178.88
2022-11-08T08:20:38.959Z,100181.53
2022-11-08T08:23:06.739Z,100181.53
2022-11-08T08:25:33.748Z,100174.50
2022-11-08T08:28:03.691Z,100175.38
2022-11-08T08:30:31.735Z,100164.78
2022-11-08T08:35:58.054Z,100151.56
2022-11-08T08:38:24.635Z,100150.72
2022-11-08T08:40:51.753Z,100145.44
2022-11-08T08:43:19.443Z,100143.66
2022-11-08T08:45:46.353Z,100134.88
2022-11-08T08:48:13.022Z,100128.69
2022-11-08T08:50:39.928Z,100134.00
2022-11-08T08:53:07.402Z,100132.25
2022-11-08T08:55:36.845Z,100125.19
2022-11-08T08:58:03.667Z,100118.09
2022-11-08T09:03:17.330Z,100104.84
2022-11-08T09:05:46.627Z,100098.59
2022-11-08T09:08:15.800Z,100101.22
2022-11-08T09:10:43.206Z,100096.78
2022-11-08T09:13:10.493Z,100095.00
2022-11-08T09:15:39.398Z,100084.34
2022-11-08T09:18:06.645Z,100080.75
2022-11-08T09:20:33.260Z,100075.41
2022-11-08T09:23:03.472Z,100073.63
2022-11-08T09:25:30.948Z,100071.81
2022-11-08T09:27:57.619Z,100062.91
2022-11-08T09:30:24.201Z,100065.50
2022-11-08T09:33:00.751Z,100069.00
2022-11-08T09:35:27.767Z,100070.66
2022-11-08T09:37:54.811Z,100065.31
2022-11-08T09:40:37.490Z,100059.03
2022-11-08T09:43:29.211Z,100073.13
2022-11-08T09:45:57.381Z,100071.34
2022-11-08T09:48:35.639Z,100069.50
2022-11-08T09:51:10.139Z,100069.50
2022-11-08T09:53:49.403Z,100079.22
2022-11-08T09:56:23.510Z,100072.97
2022-11-08T09:58:54.597Z,100063.19
2022-11-08T10:01:26.942Z,100067.59
2022-11-08T10:03:57.038Z,100068.44
2022-11-08T10:06:40.463Z,100062.22
2022-11-08T10:09:37.320Z,100056.91
2022-11-08T10:12:43.828Z,100055.09
2022-11-08T10:15:38.435Z,100047.97
2022-11-08T10:18:17.227Z,100046.16
2022-11-08T10:20:59.769Z,100040.84
2022-11-08T10:23:36.826Z,100039.94
2022-11-08T10:26:13.394Z,100040.81
2022-11-08T10:29:07.526Z,100047.00
2022-11-08T10:31:37.986Z,100036.31
2022-11-08T10:34:14.279Z,100036.31
2022-11-08T10:36:47.057Z,100036.31
2022-11-08T10:39:22.560Z,100029.22
2022-11-08T10:42:36.970Z,100031.84
2022-11-08T10:45:03.684Z,100028.28
2022-11-08T10:47:32.735Z,100031.84
2022-11-08T10:50:03.626Z,100021.19
2022-11-08T10:52:38.282Z,100019.34
2022-11-08T10:55:09.730Z,100006.84
2022-11-08T10:57:42.172Z,100005.00
2022-11-08T11:00:25.002Z,100004.94
2022-11-08T11:02:54.469Z,99993.34
2022-11-08T11:05:44.038Z,99988.81
2022-11-08T11:08:10.540Z,99975.38
2022-11-08T11:10:41.346Z,99977.97
2022-11-08T11:13:12.845Z,99976.09
2022-11-08T11:15:47.240Z,99981.28
2022-11-08T11:18:37.097Z,99968.72
2022-11-08T11:21:10.888Z,99974.81
2022-11-08T11:23:40.083Z,99968.50
2022-11-08T11:26:08.971Z,99963.91
2022-11-08T11:28:38.456Z,99968.28
2022-11-08T11:31:16.944Z,99960.13
2022-11-08T11:33:46.156Z,99964.41
2022-11-08T11:36:22.296Z,99955.38
2022-11-08T11:38:52.674Z,99949.91
2022-11-08T11:41:26.355Z,99948.88
2022-11-08T11:44:15.292Z,99946.03
2022-11-08T11:46:44.536Z,99943.19
2022-11-08T11:49:16.792Z,99937.72
2022-11-08T11:51:43.727Z,99941.97
2022-11-08T11:54:14.675Z,99934.72
2022-11-08T11:57:00.088Z,99939.88
2022-11-08T11:59:40.105Z,99921.03
2022-11-08T12:02:48.768Z,99938.66
2022-11-08T12:05:46.353Z,99932.06
2022-11-08T12:08:37.417Z,99940.72
2022-11-08T12:11:16.165Z,99936.06
2022-11-08T12:14:10.321Z,99938.53
2022-11-08T12:16:58.563Z,99936.63
2022-11-08T12:19:38.875Z,99939.25
2022-11-08T12:22:29.956Z,99936.47
2022-11-08T12:25:18.803Z,99929.28
2022-11-08T12:27:58.216Z,99931.03
2022-11-08T12:30:49.809Z,99920.25
2022-11-08T12:33:29.296Z,99923.81
2022-11-08T12:36:14.627Z,99922.03
2022-11-08T12:39:00.499Z,99919.38
2022-11-08T12:41:44.764Z,99921.13
2022-11-08T12:44:48.836Z,99911.38
2022-11-08T12:47:26.301Z,99906.03
2022-11-08T12:50:14.629Z,99902.47
2022-11-08T12:52:46.913Z,99897.03
2022-11-08T12:55:28.805Z,99893.47
2022-11-08T12:57:58.762Z,99883.59
2022-11-08T13:00:27.456Z,99883.41
2022-11-08T13:02:59.943Z,99882.31
2022-11-08T13:05:34.995Z,99869.72
2022-11-08T13:08:10.864Z,99872.28
2022-11-08T13:11:06.854Z,99873.97
2022-11-08T13:13:54.972Z,99861.53
2022-11-08T13:16:27.097Z,99866.88
2022-11-08T13:18:58.833Z,99859.75
2022-11-08T13:21:28.461Z,99869.56
2022-11-08T13:24:42.721Z,99867.78
2022-11-08T13:27:24.542Z,99868.66
2022-11-08T13:29:52.441Z,99873.13
2022-11-08T13:32:39.871Z,99866.88
2022-11-08T13:35:41.086Z,99862.38
2022-11-08T13:38:34.845Z,99860.63
2022-11-08T13:41:16.754Z,99854.44
2022-11-08T13:43:43.847Z,99859.84
2022-11-08T13:46:30.750Z,99866.16
2022-11-08T13:49:03.540Z,99859.91
2022-11-08T13:51:40.602Z,99861.72
2022-11-08T13:54:22.367Z,99854.66
2022-11-08T13:56:50.360Z,99856.44
2022-11-08T13:59:32.387Z,99853.97
2022-11-08T14:02:00.869Z,99850.53
2022-11-08T14:04:30.912Z,99846.25
2022-11-08T14:07:22.228Z,99838.38
2022-11-08T14:10:01.260Z,99838.56
2022-11-08T14:12:36.899Z,99836.88
2022-11-08T14:15:15.654Z,99834.28
2022-11-08T14:18:03.985Z,99833.44
2022-11-08T14:20:36.915Z,99826.34
2022-11-08T14:23:23.891Z,99822.91
2022-11-08T14:25:58.530Z,99824.81
2022-11-08T14:28:34.645Z,99825.00
2022-11-08T14:31:03.882Z,99823.31
2022-11-08T14:33:32.042Z,99823.44
2022-11-08T14:36:07.448Z,99836.84
2022-11-08T14:38:47.864Z,99828.06
2022-11-08T14:41:19.568Z,99833.50
2022-11-08T14:43:47.618Z,99841.56
2022-11-08T14:46:34.394Z,99835.44
2022-11-08T14:49:13.259Z,99835.56
2022-11-08T14:51:40.850Z,99835.69
2022-11-08T14:54:38.049Z,99826.06
2022-11-08T14:57:04.604Z,99827.97
2022-11-08T14:59:31.305Z,99836.09
2022-11-08T15:01:58.603Z,99837.06
2022-11-08T15:04:26.088Z,99837.22
2022-11-08T15:06:54.966Z,99837.34
2022-11-08T15:09:28.430Z,99836.56
2022-11-08T15:12:01.385Z,99834.84
2022-11-08T15:14:32.465Z,99835.78
2022-11-08T15:17:03.085Z,99830.50
2022-11-08T15:19:42.634Z,99834.97
2022-11-08T15:22:26.269Z,99828.78
2022-11-08T15:25:14.367Z,99827.13
2022-11-08T15:27:58.449Z,99831.56
2022-11-08T15:30:27.992Z,99833.38
2022-11-08T15:32:54.542Z,99834.31
2022-11-08T15:35:33.839Z,99834.38
2022-11-08T15:38:23.655Z,99838.84
2022-11-08T15:40:53.392Z,99837.16
2022-11-08T15:43:35.801Z,99842.50
2022-11-08T15:46:05.190Z,99830.19
2022-11-08T15:48:33.337Z,99832.84
2022-11-08T15:50:59.939Z,99839.13
2022-11-08T15:53:27.372Z,99832.06
2022-11-08T15:55:58.837Z,99827.69
2022-11-08T15:58:36.374Z,99834.84
2022-11-08T16:01:04.425Z,99841.13
2022-11-08T16:03:33.904Z,99844.75
2022-11-08T16:06:00.951Z,99839.44
2022-11-08T16:08:28.114Z,99833.25
2022-11-08T16:10:59.475Z,99839.47
2022-11-08T16:13:38.894Z,99828.03
2022-11-08T16:16:12.581Z,99832.50
2022-11-08T16:18:40.198Z,99835.19
2022-11-08T16:21:09.413Z,99834.31
2022-11-08T16:23:35.955Z,99827.25
2022-11-08T16:26:04.858Z,99806.84
2022-11-08T16:28:37.866Z,99815.75
2022-11-08T16:31:07.163Z,99823.78
2022-11-08T16:33:35.701Z,99819.38
2022-11-08T16:36:20.182Z,99826.53
2022-11-08T16:38:50.740Z,99833.66
2022-11-08T16:41:17.809Z,99831.91
2022-11-08T16:43:45.015Z,99839.91
2022-11-08T16:46:11.802Z,99843.50
2022-11-08T16:48:40.272Z,99845.28
2022-11-08T16:51:12.745Z,99850.63
2022-11-08T16:53:39.274Z,99850.56
2022-11-08T16:56:05.965Z,99853.16
2022-11-08T16:58:32.540Z,99855.78
2022-11-08T17:00:59.254Z,99852.22
2022-11-08T17:03:29.509Z,99855.69
2022-11-08T17:05:56.919Z,99858.31
2022-11-08T17:08:25.035Z,99852.94
2022-11-08T17:10:52.412Z,99858.16
2022-11-08T17:13:20.659Z,99849.28
2022-11-08T17:15:49.123Z,99833.25
2022-11-08T17:18:19.055Z,99834.13
2022-11-08T17:20:45.888Z,99831.41
2022-11-08T17:23:13.268Z,99822.50
2022-11-08T17:25:42.841Z,99808.25
2022-11-08T17:28:11.267Z,99802.00
2022-11-08T17:30:43.940Z,99794.84
2022-11-08T17:33:12.083Z,99804.56
2022-11-08T17:35:42.821Z,99808.06
2022-11-08T17:38:11.460Z,99801.84
2022-11-08T17:40:38.121Z,99793.91
2022-11-08T17:43:04.657Z,99788.63
2022-11-08T17:45:31.313Z,99788.66
2022-11-08T17:47:57.809Z,99801.09
2022-11-08T17:50:24.483Z,99817.13
2022-11-08T17:52:54.597Z,99818.03
2022-11-08T17:55:21.217Z,99825.13
2022-11-08T17:57:48.091Z,99825.16
2022-11-08T18:00:15.330Z,99829.63
2022-11-08T18:02:41.783Z,99833.19
2022-11-08T18:05:08.523Z,99834.09
2022-11-08T18:07:35.478Z,99849.19
2022-11-08T18:10:02.827Z,99845.59
2022-11-08T18:12:31.270Z,99835.78
2022-11-08T18:14:57.800Z,99846.50
2022-11-08T18:17:24.426Z,99829.56
2022-11-08T18:19:51.273Z,99839.31
2022-11-08T18:22:18.061Z,99844.63
2022-11-08T18:24:47.444Z,99843.75
2022-11-08T18:27:16.576Z,99850.81
2022-11-08T18:29:43.100Z,99857.03
2022-11-08T18:32:09.731Z,99856.16
2022-11-08T18:34:36.279Z,99865.06
2022-11-08T18:37:02.899Z,99856.19
2022-11-08T18:39:29.573Z,99869.56
2022-11-08T18:41:56.093Z,99855.38
2022-11-08T18:44:22.746Z,99851.00
2022-11-08T18:46:49.449Z,99854.59
2022-11-08T18:49:16.418Z,99845.69
2022-11-08T18:51:43.108Z,99842.16
2022-11-08T18:54:09.863Z,99840.41
2022-11-08T18:56:36.612Z,99834.16
2022-11-08T18:59:03.444Z,99843.94
2022-11-08T19:01:30.567Z,99834.16
2022-11-08T19:03:57.109Z,99839.47
2022-11-08T19:06:23.749Z,99841.25
2022-11-08T19:08:50.554Z,99847.50
2022-11-08T19:11:21.322Z,99847.50
2022-11-08T19:13:48.362Z,99847.50
2022-11-08T19:16:17.925Z,99849.28
2022-11-08T19:18:45.723Z,99854.59
2022-11-08T19:21:20.240Z,99852.78
2022-11-08T19:23:47.586Z,99838.53
2022-11-08T19:26:22.273Z,99840.31
2022-11-08T19:28:50.222Z,99850.97
2022-11-08T19:31:19.167Z,99829.63
2022-11-08T19:33:47.367Z,99828.72
2022-11-08T19:36:18.185Z,99826.06
2022-11-08T19:38:45.426Z,99824.28
2022-11-08T19:41:15.088Z,99830.50
2022-11-08T19:43:43.189Z,99826.03
2022-11-08T19:46:22.753Z,99832.19
2022-11-08T19:48:50.831Z,99836.69
2022-11-08T19:51:20.256Z,99829.56
2022-11-08T19:53:47.030Z,99838.41
2022-11-08T19:56:19.041Z,99833.97
2022-11-08T19:58:46.147Z,99823.31
2022-11-08T20:01:20.985Z,99826.84
2022-11-08T20:03:48.607Z,99825.88
2022-11-08T20:06:18.566Z,99818.78
2022-11-08T20:08:53.643Z,99828.53
2022-11-08T20:11:25.931Z,99837.44
2022-11-08T20:13:52.535Z,99836.53
2022-11-08T20:16:21.679Z,99841.84
2022-11-08T20:18:49.933Z,99835.66
2022-11-08T20:21:17.946Z,99835.69
2022-11-08T20:23:45.235Z,99839.19
2022-11-08T20:26:18.362Z,99844.50
2022-11-08T20:28:55.984Z,99840.06
2022-11-08T20:31:23.954Z,99845.38
2022-11-08T20:33:53.123Z,99839.22
2022-11-08T20:36:21.772Z,99849.00
2022-11-08T20:38:49.006Z,99847.25
2022-11-08T20:41:16.686Z,99846.34
2022-11-08T20:43:45.207Z,99845.50
2022-11-08T20:46:17.067Z,99842.00
2022-11-08T20:48:44.319Z,99848.22
2022-11-08T20:51:16.618Z,99841.16
2022-11-08T20:53:43.870Z,99833.16
2022-11-08T20:56:16.069Z,99842.03
2022-11-08T20:58:44.303Z,99834.97
2022-11-08T21:01:13.536Z,99839.38
2022-11-08T21:03:40.973Z,99834.97
2022-11-08T21:06:09.125Z,99826.06
2022-11-08T21:11:26.887Z,99825.19
2022-11-08T21:13:53.684Z,99828.72
2022-11-08T21:16:29.755Z,99825.19
2022-11-08T21:18:57.465Z,99811.03
2022-11-08T21:21:24.627Z,99826.13
2022-11-08T21:23:52.044Z,99825.22
2022-11-08T21:26:22.119Z,99826.16
2022-11-08T21:28:48.881Z,99827.94
2022-11-08T21:31:16.133Z,99823.53
2022-11-08T21:33:42.897Z,99825.31
2022-11-08T21:36:10.399Z,99823.50
2022-11-08T21:38:38.141Z,99831.53
2022-11-08T21:41:07.229Z,99842.19
2022-11-08T21:43:39.074Z,99839.59
2022-11-08T21:46:21.283Z,99843.13
2022-11-08T21:48:53.308Z,99830.66
2022-11-08T21:51:19.837Z,99830.66
2022-11-08T21:53:54.020Z,99822.66
2022-11-08T21:56:22.972Z,99822.66
2022-11-08T21:58:49.844Z,99830.69
2022-11-08T22:01:16.846Z,99828.97
2022-11-08T22:03:43.984Z,99836.91
2022-11-08T22:06:10.623Z,99837.84
2022-11-08T22:08:37.326Z,99838.72
2022-11-08T22:11:04.336Z,99843.16
2022-11-08T22:13:30.987Z,99844.94
2022-11-08T22:15:57.907Z,99831.66
2022-11-08T22:18:36.710Z,99840.53
2022-11-08T22:21:28.476Z,99835.19
2022-11-08T22:23:55.131Z,99834.31
2022-11-08T22:26:21.644Z,99851.22
2022-11-08T22:28:48.157Z,99838.81
2022-11-08T22:31:14.741Z,99845.03
2022-11-08T22:33:41.338Z,99842.38
2022-11-08T22:36:08.216Z,99848.63
2022-11-08T22:38:34.807Z,99844.22
2022-11-08T22:41:01.594Z,99845.13
2022-11-08T22:43:28.081Z,99853.13
2022-11-08T22:45:54.915Z,99845.16
2022-11-08T22:48:22.687Z,99854.97
2022-11-08T22:50:49.402Z,99851.41
2022-11-08T22:53:16.100Z,99854.94
2022-11-08T22:55:45.025Z,99844.19
2022-11-08T22:58:12.494Z,99854.78
2022-11-08T23:00:39.048Z,99852.97
2022-11-08T23:03:05.574Z,99854.78
2022-11-08T23:05:32.348Z,99848.56
2022-11-08T23:07:58.854Z,99859.19
2022-11-08T23:10:25.524Z,99853.81
2022-11-08T23:13:10.788Z,99852.97
2022-11-08T23:15:56.516Z,99857.44
2022-11-08T23:18:24.359Z,99854.78
2022-11-08T23:21:13.547Z,99854.78
2022-11-08T23:23:58.764Z,99853.84
2022-11-08T23:26:44.196Z,99857.34
2022-11-08T23:29:29.959Z,99851.94
2022-11-08T23:31:56.852Z,99854.59
2022-11-08T23:34:23.432Z,99842.13
2022-11-08T23:36:50.239Z,99842.94
2022-11-08T23:39:16.744Z,99850.91
2022-11-08T23:42:02.045Z,99839.28
2022-11-08T23:44:28.752Z,99849.00
2022-11-08T23:46:59.931Z,99834.81
2022-11-08T23:49:26.864Z,99844.53
2022-11-08T23:51:54.087Z,99847.22
2022-11-08T23:54:21.454Z,99845.38
2022-11-08T23:56:48.822Z,99843.66
2022-11-08T23:59:16.146Z,99841.03
